sensor_id;sensor_type;location;lat;lon;timestamp;temperature;humidity
20839;DHT22;10580;51.092;6.828;2023-08-06T00:00:38;15.70;1.00
20839;DHT22;10580;51.092;6.828;2023-08-06T00:03:04;15.70;1.00
20839;DHT22;10580;51.092;6.828;2023-08-06T00:05:29;15.60;1.00
20839;DHT22;10580;51.092;6.828;2023-08-06T00:07:55;15.50;1.00
20839;DHT22;10580;51.092;6.828;2023-08-06T00:10:21;15.50;1.00
20839;DHT22;10580;51.092;6.828;2023-08-06T00:12:46;15.50;1.00
20839;DHT22;10580;51.092;6.828;2023-08-06T00:15:12;15.40;1.00
20839;DHT22;10580;51.092;6.828;2023-08-06T00:17:38;15.40;1.00
20839;DHT22;10580;51.092;6.828;2023-08-06T00:20:05;15.30;1.00
20839;DHT22;10580;51.092;6.828;2023-08-06T00:22:36;15.30;1.00
20839;DHT22;10580;51.092;6.828;2023-08-06T00:25:02;15.20;1.00
20839;DHT22;10580;51.092;6.828;2023-08-06T00:27:29;15.20;1.00
20839;DHT22;10580;51.092;6.828;2023-08-06T00:29:54;15.10;1.00
20839;DHT22;10580;51.092;6.828;2023-08-06T00:32:21;15.10;1.00
20839;DHT22;10580;51.092;6.828;2023-08-06T00:34:47;15.10;1.00
20839;DHT22;10580;51.092;6.828;2023-08-06T00:37:18;15.10;1.00
20839;DHT22;10580;51.092;6.828;2023-08-06T00:39:44;15.10;1.00
20839;DHT22;10580;51.092;6.828;2023-08-06T00:42:10;15.10;1.00
20839;DHT22;10580;51.092;6.828;2023-08-06T00:44:36;15.10;1.00
20839;DHT22;10580;51.092;6.828;2023-08-06T00:47:02;15.10;1.00
20839;DHT22;10580;51.092;6.828;2023-08-06T00:49:28;15.20;1.00
20839;DHT22;10580;51.092;6.828;2023-08-06T00:51:54;15.20;1.00
20839;DHT22;10580;51.092;6.828;2023-08-06T00:54:21;15.30;1.00
20839;DHT22;10580;51.092;6.828;2023-08-06T00:56:47;15.40;1.00
20839;DHT22;10580;51.092;6.828;2023-08-06T00:59:13;15.50;1.00
20839;DHT22;10580;51.092;6.828;2023-08-06T01:01:39;15.50;1.00
20839;DHT22;10580;51.092;6.828;2023-08-06T01:04:05;15.50;1.00
20839;DHT22;10580;51.092;6.828;2023-08-06T01:06:56;15.50;1.00
20839;DHT22;10580;51.092;6.828;2023-08-06T01:12:32;15.50;1.00
20839;DHT22;10580;51.092;6.828;2023-08-06T01:15:19;15.50;1.00
20839;DHT22;10580;51.092;6.828;2023-08-06T01:17:45;15.50;1.00
20839;DHT22;10580;51.092;6.828;2023-08-06T01:20:11;15.50;1.00
20839;DHT22;10580;51.092;6.828;2023-08-06T01:22:36;15.50;1.00
20839;DHT22;10580;51.092;6.828;2023-08-06T01:25:02;15.50;1.00
20839;DHT22;10580;51.092;6.828;2023-08-06T01:30:12;15.50;1.00
20839;DHT22;10580;51.092;6.828;2023-08-06T01:32:44;15.50;1.00
20839;DHT22;10580;51.092;6.828;2023-08-06T01:35:15;15.50;1.00
20839;DHT22;10580;51.092;6.828;2023-08-06T01:37:41;15.50;1.00
20839;DHT22;10580;51.092;6.828;2023-08-06T01:40:13;15.50;1.00
20839;DHT22;10580;51.092;6.828;2023-08-06T01:42:39;15.50;1.00
20839;DHT22;10580;51.092;6.828;2023-08-06T01:45:07;15.50;1.00
20839;DHT22;10580;51.092;6.828;2023-08-06T01:47:33;15.50;1.00
20839;DHT22;10580;51.092;6.828;2023-08-06T01:49:58;15.50;1.00
20839;DHT22;10580;51.092;6.828;2023-08-06T01:52:24;15.40;1.00
20839;DHT22;10580;51.092;6.828;2023-08-06T01:54:50;15.40;1.00
20839;DHT22;10580;51.092;6.828;2023-08-06T01:57:15;15.40;1.00
20839;DHT22;10580;51.092;6.828;2023-08-06T01:59:41;15.40;1.00
20839;DHT22;10580;51.092;6.828;2023-08-06T02:02:06;15.40;1.00
20839;DHT22;10580;51.092;6.828;2023-08-06T02:04:32;15.40;1.00
20839;DHT22;10580;51.092;6.828;2023-08-06T02:06:57;15.30;1.00
20839;DHT22;10580;51.092;6.828;2023-08-06T02:09:23;15.30;1.00
20839;DHT22;10580;51.092;6.828;2023-08-06T02:11:48;15.30;1.00
20839;DHT22;10580;51.092;6.828;2023-08-06T02:14:14;15.30;1.00
20839;DHT22;10580;51.092;6.828;2023-08-06T02:16:40;15.40;1.00
20839;DHT22;10580;51.092;6.828;2023-08-06T02:19:05;15.40;1.00
20839;DHT22;10580;51.092;6.828;2023-08-06T02:21:31;15.40;1.00
20839;DHT22;10580;51.092;6.828;2023-08-06T02:23:56;15.40;1.00
20839;DHT22;10580;51.092;6.828;2023-08-06T02:26:22;15.40;1.00
20839;DHT22;10580;51.092;6.828;2023-08-06T02:28:47;15.40;1.00
20839;DHT22;10580;51.092;6.828;2023-08-06T02:31:13;15.40;1.00
20839;DHT22;10580;51.092;6.828;2023-08-06T02:33:39;15.30;1.00
20839;DHT22;10580;51.092;6.828;2023-08-06T02:36:04;15.20;1.00
20839;DHT22;10580;51.092;6.828;2023-08-06T02:38:30;15.20;1.00
20839;DHT22;10580;51.092;6.828;2023-08-06T02:40:56;15.10;1.00
20839;DHT22;10580;51.092;6.828;2023-08-06T02:43:22;15.00;1.00
20839;DHT22;10580;51.092;6.828;2023-08-06T02:45:47;15.00;1.00
20839;DHT22;10580;51.092;6.828;2023-08-06T02:48:13;15.00;1.00
20839;DHT22;10580;51.092;6.828;2023-08-06T02:50:42;15.00;1.00
20839;DHT22;10580;51.092;6.828;2023-08-06T02:53:08;15.00;1.00
20839;DHT22;10580;51.092;6.828;2023-08-06T02:55:35;14.90;1.00
20839;DHT22;10580;51.092;6.828;2023-08-06T02:58:01;15.00;1.00
20839;DHT22;10580;51.092;6.828;2023-08-06T03:00:27;15.00;1.00
20839;DHT22;10580;51.092;6.828;2023-08-06T03:02:53;15.00;1.00
20839;DHT22;10580;51.092;6.828;2023-08-06T03:05:19;15.00;1.00
20839;DHT22;10580;51.092;6.828;2023-08-06T03:07:44;15.00;1.00
20839;DHT22;10580;51.092;6.828;2023-08-06T03:10:10;15.00;1.00
20839;DHT22;10580;51.092;6.828;2023-08-06T03:12:36;15.00;1.00
20839;DHT22;10580;51.092;6.828;2023-08-06T03:15:01;15.00;1.00
20839;DHT22;10580;51.092;6.828;2023-08-06T03:17:27;15.00;1.00
20839;DHT22;10580;51.092;6.828;2023-08-06T03:19:53;15.00;1.00
20839;DHT22;10580;51.092;6.828;2023-08-06T03:22:18;15.10;1.00
20839;DHT22;10580;51.092;6.828;2023-08-06T03:24:44;15.00;1.00
20839;DHT22;10580;51.092;6.828;2023-08-06T03:27:09;15.10;1.00
20839;DHT22;10580;51.092;6.828;2023-08-06T03:29:35;15.10;1.00
20839;DHT22;10580;51.092;6.828;2023-08-06T03:32:00;15.10;1.00
20839;DHT22;10580;51.092;6.828;2023-08-06T03:34:26;15.00;1.00
20839;DHT22;10580;51.092;6.828;2023-08-06T03:36:51;15.10;1.00
20839;DHT22;10580;51.092;6.828;2023-08-06T03:39:17;15.10;1.00
20839;DHT22;10580;51.092;6.828;2023-08-06T03:41:43;15.10;1.00
20839;DHT22;10580;51.092;6.828;2023-08-06T03:44:08;15.10;1.00
20839;DHT22;10580;51.092;6.828;2023-08-06T03:46:34;15.10;1.00
20839;DHT22;10580;51.092;6.828;2023-08-06T03:49:02;15.10;1.00
20839;DHT22;10580;51.092;6.828;2023-08-06T03:51:28;15.10;1.00
20839;DHT22;10580;51.092;6.828;2023-08-06T03:53:54;15.10;1.00
20839;DHT22;10580;51.092;6.828;2023-08-06T03:56:19;15.20;1.00
20839;DHT22;10580;51.092;6.828;2023-08-06T03:58:45;15.20;1.00
20839;DHT22;10580;51.092;6.828;2023-08-06T04:01:10;15.10;1.00
20839;DHT22;10580;51.092;6.828;2023-08-06T04:03:36;15.20;1.00
20839;DHT22;10580;51.092;6.828;2023-08-06T04:06:02;15.20;1.00
20839;DHT22;10580;51.092;6.828;2023-08-06T04:08:28;15.20;1.00
20839;DHT22;10580;51.092;6.828;2023-08-06T04:10:54;15.20;1.00
20839;DHT22;10580;51.092;6.828;2023-08-06T04:13:19;15.20;1.00
20839;DHT22;10580;51.092;6.828;2023-08-06T04:15:46;15.20;1.00
20839;DHT22;10580;51.092;6.828;2023-08-06T04:18:12;15.20;1.00
20839;DHT22;10580;51.092;6.828;2023-08-06T04:20:45;15.20;1.00
20839;DHT22;10580;51.092;6.828;2023-08-06T04:23:11;15.20;1.00
20839;DHT22;10580;51.092;6.828;2023-08-06T04:25:37;15.20;1.00
20839;DHT22;10580;51.092;6.828;2023-08-06T04:28:02;15.20;1.00
20839;DHT22;10580;51.092;6.828;2023-08-06T04:30:28;15.20;1.00
20839;DHT22;10580;51.092;6.828;2023-08-06T04:32:53;15.20;1.00
20839;DHT22;10580;51.092;6.828;2023-08-06T04:35:19;15.20;1.00
20839;DHT22;10580;51.092;6.828;2023-08-06T04:37:44;15.10;2.60
20839;DHT22;10580;51.092;6.828;2023-08-06T04:40:10;15.10;15.00
20839;DHT22;10580;51.092;6.828;2023-08-06T04:42:36;15.00;22.80
20839;DHT22;10580;51.092;6.828;2023-08-06T04:45:02;15.10;28.40
20839;DHT22;10580;51.092;6.828;2023-08-06T04:47:28;15.00;40.20
20839;DHT22;10580;51.092;6.828;2023-08-06T04:49:54;15.00;53.90
20839;DHT22;10580;51.092;6.828;2023-08-06T04:52:19;14.90;65.80
20839;DHT22;10580;51.092;6.828;2023-08-06T04:54:45;14.90;77.10
20839;DHT22;10580;51.092;6.828;2023-08-06T04:57:10;14.90;86.90
20839;DHT22;10580;51.092;6.828;2023-08-06T04:59:36;14.90;90.80
20839;DHT22;10580;51.092;6.828;2023-08-06T05:02:02;14.90;91.30
20839;DHT22;10580;51.092;6.828;2023-08-06T05:04:28;14.90;91.00
20839;DHT22;10580;51.092;6.828;2023-08-06T09:18:35;21.10;1.00
20839;DHT22;10580;51.092;6.828;2023-08-06T09:21:13;21.00;1.00
20839;DHT22;10580;51.092;6.828;2023-08-06T09:23:40;20.80;99.90
20839;DHT22;10580;51.092;6.828;2023-08-06T09:26:06;20.70;1.00
20839;DHT22;10580;51.092;6.828;2023-08-06T09:28:38;20.50;99.90
20839;DHT22;10580;51.092;6.828;2023-08-06T09:31:13;20.40;1.00
20839;DHT22;10580;51.092;6.828;2023-08-06T09:33:39;20.20;99.90
20839;DHT22;10580;51.092;6.828;2023-08-06T09:36:10;20.20;1.00
20839;DHT22;10580;51.092;6.828;2023-08-06T09:38:41;20.30;1.00
20839;DHT22;10580;51.092;6.828;2023-08-06T09:41:07;20.10;99.90
20839;DHT22;10580;51.092;6.828;2023-08-06T09:43:42;19.70;99.90
20839;DHT22;10580;51.092;6.828;2023-08-06T09:46:13;19.60;1.00
20839;DHT22;10580;51.092;6.828;2023-08-06T09:48:39;19.20;1.00
20839;DHT22;10580;51.092;6.828;2023-08-06T09:51:10;19.00;99.90
20839;DHT22;10580;51.092;6.828;2023-08-06T09:53:42;18.40;1.00
20839;DHT22;10580;51.092;6.828;2023-08-06T09:56:09;17.80;99.90
20839;DHT22;10580;51.092;6.828;2023-08-06T09:58:36;17.40;99.90
20839;DHT22;10580;51.092;6.828;2023-08-06T10:01:04;17.00;1.00
20839;DHT22;10580;51.092;6.828;2023-08-06T10:03:30;16.60;1.00
20839;DHT22;10580;51.092;6.828;2023-08-06T10:05:57;16.30;1.00
20839;DHT22;10580;51.092;6.828;2023-08-06T10:08:23;16.10;1.00
20839;DHT22;10580;51.092;6.828;2023-08-06T10:10:49;15.90;1.00
20839;DHT22;10580;51.092;6.828;2023-08-06T10:13:16;15.90;30.40
20839;DHT22;10580;51.092;6.828;2023-08-06T10:15:43;15.90;58.10
20839;DHT22;10580;51.092;6.828;2023-08-06T10:18:09;15.90;80.20
20839;DHT22;10580;51.092;6.828;2023-08-06T10:20:35;15.70;90.80
20839;DHT22;10580;51.092;6.828;2023-08-06T10:23:04;15.70;99.90
20839;DHT22;10580;51.092;6.828;2023-08-06T10:25:31;15.70;99.90
20839;DHT22;10580;51.092;6.828;2023-08-06T10:27:57;15.60;99.90
20839;DHT22;10580;51.092;6.828;2023-08-06T10:30:31;15.60;99.90
20839;DHT22;10580;51.092;6.828;2023-08-06T10:33:03;15.50;99.90
20839;DHT22;10580;51.092;6.828;2023-08-06T10:35:44;15.50;99.90
20839;DHT22;10580;51.092;6.828;2023-08-06T10:38:18;15.50;99.90
20839;DHT22;10580;51.092;6.828;2023-08-06T10:41:01;15.50;95.70
20839;DHT22;10580;51.092;6.828;2023-08-06T10:43:31;15.60;99.90
20839;DHT22;10580;51.092;6.828;2023-08-06T10:45:59;15.50;54.40
20839;DHT22;10580;51.092;6.828;2023-08-06T10:51:02;15.50;42.90
20839;DHT22;10580;51.092;6.828;2023-08-06T10:53:28;15.40;27.40
20839;DHT22;10580;51.092;6.828;2023-08-06T10:55:54;15.30;24.30
20839;DHT22;10580;51.092;6.828;2023-08-06T10:58:19;15.20;24.30
20839;DHT22;10580;51.092;6.828;2023-08-06T11:00:46;15.20;57.80
20839;DHT22;10580;51.092;6.828;2023-08-06T11:03:11;15.10;61.40
20839;DHT22;10580;51.092;6.828;2023-08-06T11:05:37;15.00;91.50
20839;DHT22;10580;51.092;6.828;2023-08-06T11:08:03;14.90;98.70
20839;DHT22;10580;51.092;6.828;2023-08-06T11:10:28;14.80;99.90
20839;DHT22;10580;51.092;6.828;2023-08-06T11:13:01;14.80;99.90
20839;DHT22;10580;51.092;6.828;2023-08-06T11:15:26;14.80;99.90
20839;DHT22;10580;51.092;6.828;2023-08-06T11:17:52;14.80;99.90
20839;DHT22;10580;51.092;6.828;2023-08-06T11:20:23;14.70;98.30
20839;DHT22;10580;51.092;6.828;2023-08-06T11:22:50;14.70;94.20
20839;DHT22;10580;51.092;6.828;2023-08-06T11:25:15;14.70;94.80
20839;DHT22;10580;51.092;6.828;2023-08-06T11:27:41;14.60;97.80
20839;DHT22;10580;51.092;6.828;2023-08-06T11:30:07;14.60;99.90
20839;DHT22;10580;51.092;6.828;2023-08-06T11:32:46;14.70;99.90
20839;DHT22;10580;51.092;6.828;2023-08-06T11:35:15;14.70;99.90
20839;DHT22;10580;51.092;6.828;2023-08-06T11:37:45;14.80;99.90
20839;DHT22;10580;51.092;6.828;2023-08-06T11:40:23;14.80;99.90
20839;DHT22;10580;51.092;6.828;2023-08-06T11:42:52;14.80;91.90
20839;DHT22;10580;51.092;6.828;2023-08-06T11:45:22;14.90;83.10
20839;DHT22;10580;51.092;6.828;2023-08-06T11:47:51;14.90;80.00
20839;DHT22;10580;51.092;6.828;2023-08-06T11:50:28;15.00;57.00
20839;DHT22;10580;51.092;6.828;2023-08-06T11:53:00;15.00;24.90
20839;DHT22;10580;51.092;6.828;2023-08-06T11:55:27;15.10;30.00
20839;DHT22;10580;51.092;6.828;2023-08-06T11:57:54;15.10;2.30
20839;DHT22;10580;51.092;6.828;2023-08-06T12:00:24;15.20;1.00
20839;DHT22;10580;51.092;6.828;2023-08-06T12:02:51;15.30;1.00
20839;DHT22;10580;51.092;6.828;2023-08-06T12:05:22;15.20;1.00
20839;DHT22;10580;51.092;6.828;2023-08-06T12:07:58;15.30;1.00
20839;DHT22;10580;51.092;6.828;2023-08-06T12:10:28;15.40;17.80
20839;DHT22;10580;51.092;6.828;2023-08-06T12:12:54;15.40;1.00
20839;DHT22;10580;51.092;6.828;2023-08-06T12:15:22;15.50;1.00
20839;DHT22;10580;51.092;6.828;2023-08-06T12:17:49;15.50;1.00
20839;DHT22;10580;51.092;6.828;2023-08-06T12:20:17;15.60;1.00
20839;DHT22;10580;51.092;6.828;2023-08-06T12:22:42;15.60;1.00
20839;DHT22;10580;51.092;6.828;2023-08-06T12:25:10;15.70;1.00
20839;DHT22;10580;51.092;6.828;2023-08-06T12:30:53;15.70;1.00
20839;DHT22;10580;51.092;6.828;2023-08-06T12:33:20;15.70;1.00
20839;DHT22;10580;51.092;6.828;2023-08-06T12:35:46;15.70;1.00
20839;DHT22;10580;51.092;6.828;2023-08-06T12:38:11;15.60;1.00
20839;DHT22;10580;51.092;6.828;2023-08-06T12:40:39;15.60;1.00
20839;DHT22;10580;51.092;6.828;2023-08-06T12:43:04;15.60;1.00
20839;DHT22;10580;51.092;6.828;2023-08-06T12:45:30;15.60;1.00
20839;DHT22;10580;51.092;6.828;2023-08-06T12:47:55;15.70;1.00
20839;DHT22;10580;51.092;6.828;2023-08-06T12:50:21;15.70;1.00
20839;DHT22;10580;51.092;6.828;2023-08-06T12:52:47;15.60;1.00
20839;DHT22;10580;51.092;6.828;2023-08-06T12:55:12;15.70;1.00
20839;DHT22;10580;51.092;6.828;2023-08-06T12:57:38;15.70;1.00
20839;DHT22;10580;51.092;6.828;2023-08-06T13:00:04;15.80;1.00
20839;DHT22;10580;51.092;6.828;2023-08-06T13:02:30;15.90;1.00
20839;DHT22;10580;51.092;6.828;2023-08-06T13:04:56;15.90;1.00
20839;DHT22;10580;51.092;6.828;2023-08-06T13:07:21;15.90;1.00
20839;DHT22;10580;51.092;6.828;2023-08-06T13:09:47;16.00;1.00
20839;DHT22;10580;51.092;6.828;2023-08-06T13:12:12;16.10;1.00
20839;DHT22;10580;51.092;6.828;2023-08-06T13:14:38;16.10;99.90
20839;DHT22;10580;51.092;6.828;2023-08-06T13:17:04;16.10;99.90
20839;DHT22;10580;51.092;6.828;2023-08-06T13:19:32;16.20;99.90
20839;DHT22;10580;51.092;6.828;2023-08-06T13:22:04;16.30;99.90
20839;DHT22;10580;51.092;6.828;2023-08-06T13:24:42;16.30;99.90
20839;DHT22;10580;51.092;6.828;2023-08-06T13:27:07;16.40;1.00
20839;DHT22;10580;51.092;6.828;2023-08-06T13:29:38;16.40;1.00
20839;DHT22;10580;51.092;6.828;2023-08-06T13:32:03;16.30;99.90
20839;DHT22;10580;51.092;6.828;2023-08-06T13:34:29;16.30;99.90
20839;DHT22;10580;51.092;6.828;2023-08-06T13:36:55;16.40;99.90
20839;DHT22;10580;51.092;6.828;2023-08-06T13:39:20;16.30;1.00
20839;DHT22;10580;51.092;6.828;2023-08-06T13:41:46;16.30;99.90
20839;DHT22;10580;51.092;6.828;2023-08-06T13:44:11;16.20;1.00
20839;DHT22;10580;51.092;6.828;2023-08-06T13:46:39;16.40;1.00
20839;DHT22;10580;51.092;6.828;2023-08-06T13:49:05;16.40;1.00
20839;DHT22;10580;51.092;6.828;2023-08-06T13:51:30;16.40;1.00
20839;DHT22;10580;51.092;6.828;2023-08-06T13:53:56;16.50;1.00
20839;DHT22;10580;51.092;6.828;2023-08-06T13:56:23;16.50;99.90
20839;DHT22;10580;51.092;6.828;2023-08-06T13:58:49;16.50;99.90
20839;DHT22;10580;51.092;6.828;2023-08-06T14:01:17;16.60;99.90
20839;DHT22;10580;51.092;6.828;2023-08-06T14:03:44;16.60;99.90
20839;DHT22;10580;51.092;6.828;2023-08-06T14:06:10;16.50;99.90
20839;DHT22;10580;51.092;6.828;2023-08-06T14:08:35;16.60;1.00
20839;DHT22;10580;51.092;6.828;2023-08-06T14:11:01;16.70;1.00
20839;DHT22;10580;51.092;6.828;2023-08-06T14:13:26;16.70;1.00
20839;DHT22;10580;51.092;6.828;2023-08-06T14:15:52;16.80;1.00
20839;DHT22;10580;51.092;6.828;2023-08-06T14:18:20;17.00;1.00
20839;DHT22;10580;51.092;6.828;2023-08-06T14:20:45;17.00;99.90
20839;DHT22;10580;51.092;6.828;2023-08-06T14:23:11;17.00;99.90
20839;DHT22;10580;51.092;6.828;2023-08-06T14:25:39;17.10;99.90
20839;DHT22;10580;51.092;6.828;2023-08-06T14:28:04;17.00;1.00
20839;DHT22;10580;51.092;6.828;2023-08-06T14:30:33;16.70;99.90
20839;DHT22;10580;51.092;6.828;2023-08-06T14:33:02;16.60;1.00
20839;DHT22;10580;51.092;6.828;2023-08-06T14:35:28;16.40;1.00
20839;DHT22;10580;51.092;6.828;2023-08-06T14:37:54;16.10;1.00
20839;DHT22;10580;51.092;6.828;2023-08-06T14:40:20;15.90;1.00
20839;DHT22;10580;51.092;6.828;2023-08-06T14:42:47;15.80;1.00
20839;DHT22;10580;51.092;6.828;2023-08-06T14:45:13;15.70;1.00
20839;DHT22;10580;51.092;6.828;2023-08-06T14:47:39;15.60;1.00
20839;DHT22;10580;51.092;6.828;2023-08-06T14:50:05;15.60;1.00
20839;DHT22;10580;51.092;6.828;2023-08-06T14:52:34;15.60;6.60
20839;DHT22;10580;51.092;6.828;2023-08-06T14:55:09;15.50;20.20
20839;DHT22;10580;51.092;6.828;2023-08-06T14:57:35;15.50;34.40
20839;DHT22;10580;51.092;6.828;2023-08-06T15:00:01;15.40;49.10
20839;DHT22;10580;51.092;6.828;2023-08-06T15:02:26;15.40;68.60
20839;DHT22;10580;51.092;6.828;2023-08-06T15:04:53;15.50;85.00
20839;DHT22;10580;51.092;6.828;2023-08-06T15:07:18;15.50;93.10
20839;DHT22;10580;51.092;6.828;2023-08-06T15:09:44;15.50;99.90
20839;DHT22;10580;51.092;6.828;2023-08-06T15:12:10;15.30;94.00
20839;DHT22;10580;51.092;6.828;2023-08-06T15:14:36;15.30;79.30
20839;DHT22;10580;51.092;6.828;2023-08-06T15:17:02;15.20;73.90
20839;DHT22;10580;51.092;6.828;2023-08-06T15:19:27;15.20;73.40
20839;DHT22;10580;51.092;6.828;2023-08-06T15:21:53;15.20;83.70
20839;DHT22;10580;51.092;6.828;2023-08-06T15:27:25;15.40;99.90
20839;DHT22;10580;51.092;6.828;2023-08-06T15:29:54;15.40;99.90
20839;DHT22;10580;51.092;6.828;2023-08-06T15:32:23;15.50;99.90
20839;DHT22;10580;51.092;6.828;2023-08-06T15:34:50;15.50;99.90
20839;DHT22;10580;51.092;6.828;2023-08-06T15:37:16;15.60;93.10
20839;DHT22;10580;51.092;6.828;2023-08-06T15:39:42;15.70;90.20
20839;DHT22;10580;51.092;6.828;2023-08-06T15:42:11;15.70;69.10
20839;DHT22;10580;51.092;6.828;2023-08-06T15:44:40;15.90;73.20
20839;DHT22;10580;51.092;6.828;2023-08-06T15:47:05;16.00;69.80
20839;DHT22;10580;51.092;6.828;2023-08-06T15:49:31;16.10;62.80
20839;DHT22;10580;51.092;6.828;2023-08-06T15:51:57;16.20;65.50
20839;DHT22;10580;51.092;6.828;2023-08-06T15:54:22;16.30;61.20
20839;DHT22;10580;51.092;6.828;2023-08-06T15:56:59;16.20;1.00
20839;DHT22;10580;51.092;6.828;2023-08-06T15:59:53;16.10;1.00
20839;DHT22;10580;51.092;6.828;2023-08-06T16:02:18;16.20;1.00
20839;DHT22;10580;51.092;6.828;2023-08-06T16:07:48;16.10;1.00
20839;DHT22;10580;51.092;6.828;2023-08-06T16:10:14;16.10;1.00
20839;DHT22;10580;51.092;6.828;2023-08-06T16:12:40;16.00;1.00
20839;DHT22;10580;51.092;6.828;2023-08-06T16:15:11;15.90;1.00
20839;DHT22;10580;51.092;6.828;2023-08-06T16:17:38;15.80;1.00
20839;DHT22;10580;51.092;6.828;2023-08-06T16:20:04;15.80;4.80
20839;DHT22;10580;51.092;6.828;2023-08-06T16:22:32;15.70;32.10
20839;DHT22;10580;51.092;6.828;2023-08-06T16:24:57;15.60;43.30
20839;DHT22;10580;51.092;6.828;2023-08-06T16:27:23;15.60;60.10
20839;DHT22;10580;51.092;6.828;2023-08-06T16:29:51;15.50;55.00
20839;DHT22;10580;51.092;6.828;2023-08-06T16:32:40;15.50;72.50
20839;DHT22;10580;51.092;6.828;2023-08-06T16:35:06;15.40;56.50
20839;DHT22;10580;51.092;6.828;2023-08-06T16:37:35;15.30;53.10
20839;DHT22;10580;51.092;6.828;2023-08-06T16:40:02;15.20;65.00
20839;DHT22;10580;51.092;6.828;2023-08-06T16:42:31;15.20;81.80
20839;DHT22;10580;51.092;6.828;2023-08-06T17:16:09;15.10;23.80
20839;DHT22;10580;51.092;6.828;2023-08-06T17:18:35;15.00;23.00
20839;DHT22;10580;51.092;6.828;2023-08-06T17:21:00;15.00;44.70
20839;DHT22;10580;51.092;6.828;2023-08-06T17:23:26;15.10;60.00
20839;DHT22;10580;51.092;6.828;2023-08-06T17:25:53;15.10;90.00
20839;DHT22;10580;51.092;6.828;2023-08-06T17:28:19;15.00;96.00
20839;DHT22;10580;51.092;6.828;2023-08-06T17:30:45;14.90;94.50
20839;DHT22;10580;51.092;6.828;2023-08-06T17:33:10;14.90;91.50
20839;DHT22;10580;51.092;6.828;2023-08-06T17:35:39;14.80;94.60
20839;DHT22;10580;51.092;6.828;2023-08-06T17:38:05;14.80;96.60
20839;DHT22;10580;51.092;6.828;2023-08-06T17:40:31;14.80;95.20
20839;DHT22;10580;51.092;6.828;2023-08-06T17:42:56;14.80;95.40
20839;DHT22;10580;51.092;6.828;2023-08-06T17:45:22;14.80;97.60
20839;DHT22;10580;51.092;6.828;2023-08-06T17:47:48;14.70;99.90
20839;DHT22;10580;51.092;6.828;2023-08-06T17:50:14;14.70;99.90
20839;DHT22;10580;51.092;6.828;2023-08-06T17:52:40;14.70;99.90
20839;DHT22;10580;51.092;6.828;2023-08-06T17:55:06;14.70;99.90
20839;DHT22;10580;51.092;6.828;2023-08-06T17:57:31;14.70;99.90
20839;DHT22;10580;51.092;6.828;2023-08-06T17:59:57;14.60;97.40
20839;DHT22;10580;51.092;6.828;2023-08-06T18:02:22;14.60;98.10
20839;DHT22;10580;51.092;6.828;2023-08-06T18:04:48;14.70;99.90
20839;DHT22;10580;51.092;6.828;2023-08-06T18:07:14;14.50;99.90
20839;DHT22;10580;51.092;6.828;2023-08-06T18:09:40;14.60;99.90
20839;DHT22;10580;51.092;6.828;2023-08-06T18:12:06;14.50;99.90
20839;DHT22;10580;51.092;6.828;2023-08-06T18:14:34;14.50;98.80
20839;DHT22;10580;51.092;6.828;2023-08-06T18:17:00;14.50;96.00
20839;DHT22;10580;51.092;6.828;2023-08-06T18:19:26;14.50;95.30
20839;DHT22;10580;51.092;6.828;2023-08-06T18:21:51;14.40;92.70
20839;DHT22;10580;51.092;6.828;2023-08-06T18:24:17;14.40;86.90
20839;DHT22;10580;51.092;6.828;2023-08-06T18:26:42;14.30;73.40
20839;DHT22;10580;51.092;6.828;2023-08-06T18:29:09;14.30;73.50
20839;DHT22;10580;51.092;6.828;2023-08-06T18:31:34;14.30;78.40
20839;DHT22;10580;51.092;6.828;2023-08-06T18:34:02;14.30;75.50
20839;DHT22;10580;51.092;6.828;2023-08-06T18:36:28;14.20;79.20
20839;DHT22;10580;51.092;6.828;2023-08-06T18:38:55;14.20;77.60
20839;DHT22;10580;51.092;6.828;2023-08-06T18:41:20;14.20;81.80
20839;DHT22;10580;51.092;6.828;2023-08-06T18:43:46;14.20;81.10
20839;DHT22;10580;51.092;6.828;2023-08-06T18:46:13;14.20;88.70
20839;DHT22;10580;51.092;6.828;2023-08-06T18:48:39;14.20;80.60
20839;DHT22;10580;51.092;6.828;2023-08-06T18:51:05;14.10;62.50
20839;DHT22;10580;51.092;6.828;2023-08-06T18:53:30;14.00;45.30
20839;DHT22;10580;51.092;6.828;2023-08-06T18:55:56;14.00;45.80
20839;DHT22;10580;51.092;6.828;2023-08-06T18:58:22;14.00;37.40
20839;DHT22;10580;51.092;6.828;2023-08-06T19:00:47;13.90;28.70
20839;DHT22;10580;51.092;6.828;2023-08-06T19:03:13;13.90;29.40
20839;DHT22;10580;51.092;6.828;2023-08-06T19:05:39;13.90;40.10
20839;DHT22;10580;51.092;6.828;2023-08-06T19:08:08;13.90;55.10
20839;DHT22;10580;51.092;6.828;2023-08-06T19:10:35;13.90;66.90
20839;DHT22;10580;51.092;6.828;2023-08-06T19:13:24;13.80;78.90
20839;DHT22;10580;51.092;6.828;2023-08-06T19:15:50;13.80;83.30
20839;DHT22;10580;51.092;6.828;2023-08-06T19:18:16;13.90;87.20
20839;DHT22;10580;51.092;6.828;2023-08-06T19:20:43;13.80;90.00
20839;DHT22;10580;51.092;6.828;2023-08-06T19:23:09;13.70;84.80
20839;DHT22;10580;51.092;6.828;2023-08-06T19:25:45;13.70;79.20
20839;DHT22;10580;51.092;6.828;2023-08-06T19:28:12;13.70;79.80
20839;DHT22;10580;51.092;6.828;2023-08-06T19:30:41;13.70;81.50
20839;DHT22;10580;51.092;6.828;2023-08-06T19:33:08;13.70;80.20
20839;DHT22;10580;51.092;6.828;2023-08-06T19:35:36;13.60;69.60
20839;DHT22;10580;51.092;6.828;2023-08-06T19:38:09;13.60;65.10
20839;DHT22;10580;51.092;6.828;2023-08-06T19:40:35;13.60;65.40
20839;DHT22;10580;51.092;6.828;2023-08-06T19:43:00;13.60;62.50
20839;DHT22;10580;51.092;6.828;2023-08-06T19:45:26;13.60;55.90
20839;DHT22;10580;51.092;6.828;2023-08-06T19:47:51;13.60;59.80
20839;DHT22;10580;51.092;6.828;2023-08-06T19:50:17;13.50;63.00
20839;DHT22;10580;51.092;6.828;2023-08-06T19:52:42;13.50;69.20
20839;DHT22;10580;51.092;6.828;2023-08-06T19:55:08;13.60;72.10
20839;DHT22;10580;51.092;6.828;2023-08-06T19:57:34;13.50;73.40
20839;DHT22;10580;51.092;6.828;2023-08-06T20:00:00;13.50;74.60
20839;DHT22;10580;51.092;6.828;2023-08-06T20:02:26;13.50;74.20
20839;DHT22;10580;51.092;6.828;2023-08-06T20:04:51;13.50;72.20
20839;DHT22;10580;51.092;6.828;2023-08-06T20:07:17;13.50;69.20
20839;DHT22;10580;51.092;6.828;2023-08-06T20:09:43;13.50;70.30
20839;DHT22;10580;51.092;6.828;2023-08-06T20:12:09;13.50;66.40
20839;DHT22;10580;51.092;6.828;2023-08-06T20:14:35;13.50;70.40
20839;DHT22;10580;51.092;6.828;2023-08-06T20:17:00;13.50;71.90
20839;DHT22;10580;51.092;6.828;2023-08-06T20:19:26;13.50;76.30
20839;DHT22;10580;51.092;6.828;2023-08-06T20:21:51;13.40;77.90
20839;DHT22;10580;51.092;6.828;2023-08-06T20:24:17;13.40;75.00
20839;DHT22;10580;51.092;6.828;2023-08-06T20:26:42;13.50;74.60
20839;DHT22;10580;51.092;6.828;2023-08-06T20:29:08;13.40;67.90
20839;DHT22;10580;51.092;6.828;2023-08-06T20:31:33;13.50;68.20
20839;DHT22;10580;51.092;6.828;2023-08-06T20:33:59;13.40;57.20
20839;DHT22;10580;51.092;6.828;2023-08-06T20:36:25;13.40;57.60